Time;durP1;ratioP1;P1;durP2;ratioP2;P2;SDS_P1;SDS_P2;PMS_P1;PMS_P2;Temp;Humidity;BMP_temperature;BMP_pressure;BME280_temperature;BME280_humidity;BME280_pressure;Samples;Min_cycle;Max_cycle;Signal;HPM_P1;HPM_P2
2023/05/29 00:00:22;;;;;;;;;4.00;2.67;;;;;;;;5055895;28;45395;-82
2023/05/29 00:02:47;;;;;;;;;3.00;3.00;;;;;;;;5055948;28;45365;-82
2023/05/29 00:05:13;;;;;;;;;6.00;4.00;;;;;;;;5054992;28;45328;-82
2023/05/29 00:07:39;;;;;;;;;4.50;2.75;;;;;;;;5056521;28;46642;-82
2023/05/29 00:10:05;;;;;;;;;4.00;2.00;;;;;;;;5062494;28;46002;-82
2023/05/29 00:12:30;;;;;;;;;4.25;3.00;;;;;;;;5062227;28;45347;-82
2023/05/29 00:14:55;;;;;;;;;3.33;2.00;;;;;;;;5062484;28;45271;-82
2023/05/29 00:17:21;;;;;;;;;3.33;3.33;;;;;;;;5062377;28;46465;-82
2023/05/29 00:19:46;;;;;;;;;2.00;2.00;;;;;;;;5062352;28;45217;-82
2023/05/29 00:22:12;;;;;;;;;5.00;2.75;;;;;;;;5062694;28;45375;-82
2023/05/29 00:24:37;;;;;;;;;3.50;2.00;;;;;;;;5062510;28;45453;-81
2023/05/29 00:27:02;;;;;;;;;5.00;2.00;;;;;;;;5043815;28;48158;-82
2023/05/29 00:29:28;;;;;;;;;3.00;3.00;;;;;;;;5062349;28;45281;-82
2023/05/29 00:31:53;;;;;;;;;5.33;3.00;;;;;;;;5062345;28;45308;-82
2023/05/29 00:34:25;;;;;;;;;2.50;2.25;;;;;;;;5062439;28;45471;-82
2023/05/29 00:36:50;;;;;;;;;3.50;2.00;;;;;;;;5062299;28;46370;-82
2023/05/29 00:39:15;;;;;;;;;4.00;2.00;;;;;;;;5062169;28;45435;-82
2023/05/29 00:41:40;;;;;;;;;4.00;3.00;;;;;;;;5062030;28;45338;-82
2023/05/29 00:44:06;;;;;;;;;5.00;2.00;;;;;;;;5062250;28;45455;-82
2023/05/29 00:46:31;;;;;;;;;4.50;3.00;;;;;;;;5061926;28;46296;-82
2023/05/29 00:48:58;;;;;;;;;3.25;2.50;;;;;;;;5076232;28;45275;-82
2023/05/29 00:51:24;;;;;;;;;2.25;2.25;;;;;;;;5070051;28;45329;-82
2023/05/29 00:53:50;;;;;;;;;4.00;3.00;;;;;;;;5062881;28;45353;-82
2023/05/29 00:56:17;;;;;;;;;5.75;2.00;;;;;;;;5061903;28;47261;-82
2023/05/29 00:58:43;;;;;;;;;4.00;3.75;;;;;;;;5062242;28;45734;-82
2023/05/29 01:01:09;;;;;;;;;4.33;2.67;;;;;;;;5062052;28;45284;-82
2023/05/29 01:03:35;;;;;;;;;6.00;2.50;;;;;;;;5062110;28;45352;-82
2023/05/29 01:06:01;;;;;;;;;5.25;2.75;;;;;;;;5043920;28;47983;-82
2023/05/29 01:08:26;;;;;;;;;4.25;2.25;;;;;;;;5062155;28;45321;-82
2023/05/29 01:10:53;;;;;;;;;3.50;3.00;;;;;;;;5061605;28;45297;-82
2023/05/29 01:13:21;;;;;;;;;4.75;3.50;;;;;;;;5061652;28;45266;-82
2023/05/29 01:15:47;;;;;;;;;4.50;2.00;;;;;;;;5061892;28;45787;-82
2023/05/29 01:18:12;;;;;;;;;4.33;3.00;;;;;;;;5062066;28;45245;-81
2023/05/29 01:20:42;;;;;;;;;4.00;3.75;;;;;;;;5058269;28;45303;-82
2023/05/29 01:23:17;;;;;;;;;3.50;2.75;;;;;;;;5058608;28;45332;-82
2023/05/29 01:26:01;;;;;;;;;3.00;2.00;;;;;;;;5058227;28;45301;-82
2023/05/29 01:28:29;;;;;;;;;3.25;1.75;;;;;;;;5058419;28;45652;-82
2023/05/29 01:30:56;;;;;;;;;3.75;2.25;;;;;;;;5058452;28;45361;-82
2023/05/29 01:33:22;;;;;;;;;2.50;2.00;;;;;;;;5058494;28;45394;-82
2023/05/29 01:35:47;;;;;;;;;3.67;2.00;;;;;;;;5058212;28;46315;-82
2023/05/29 01:38:12;;;;;;;;;3.00;3.00;;;;;;;;5058426;28;45376;-82
2023/05/29 01:40:38;;;;;;;;;4.67;2.00;;;;;;;;5057871;28;45276;-82
2023/05/29 01:43:03;;;;;;;;;2.75;2.00;;;;;;;;5058134;28;45395;-82
2023/05/29 01:45:29;;;;;;;;;6.67;2.67;;;;;;;;5057867;28;45392;-82
2023/05/29 01:47:55;;;;;;;;;4.50;2.00;;;;;;;;5057694;28;45456;-82
2023/05/29 01:50:22;;;;;;;;;2.00;2.00;;;;;;;;5058127;28;45432;-82
2023/05/29 01:52:47;;;;;;;;;4.75;2.00;;;;;;;;5058067;28;45346;-82
2023/05/29 01:55:12;;;;;;;;;2.00;2.00;;;;;;;;5057592;28;46418;-82
2023/05/29 01:57:38;;;;;;;;;1.00;1.00;;;;;;;;5058064;28;45358;-82
2023/05/29 02:00:11;;;;;;;;;4.50;2.00;;;;;;;;5057950;28;45270;-82
2023/05/29 02:02:37;;;;;;;;;7.50;3.00;;;;;;;;5057834;28;45273;-82
2023/05/29 02:05:02;;;;;;;;;3.25;3.00;;;;;;;;5039616;28;46209;-82
2023/05/29 02:07:27;;;;;;;;;4.75;3.00;;;;;;;;5057821;28;45381;-82
2023/05/29 02:09:53;;;;;;;;;3.67;2.33;;;;;;;;5057488;28;45308;-82
2023/05/29 02:12:18;;;;;;;;;2.00;2.00;;;;;;;;5057603;28;45344;-81
2023/05/29 02:14:43;;;;;;;;;6.00;2.00;;;;;;;;5057386;28;45499;-82
2023/05/29 02:17:09;;;;;;;;;3.00;2.00;;;;;;;;5057694;28;45276;-82
2023/05/29 02:19:34;;;;;;;;;3.00;2.00;;;;;;;;5057697;28;45353;-82
2023/05/29 02:21:59;;;;;;;;;7.50;3.00;;;;;;;;5057600;28;45276;-82
2023/05/29 02:24:25;;;;;;;;;5.00;4.00;;;;;;;;5056938;28;45290;-82
2023/05/29 02:26:50;;;;;;;;;4.50;3.00;;;;;;;;5057336;28;45385;-82
2023/05/29 02:29:16;;;;;;;;;5.00;2.00;;;;;;;;5057712;28;45309;-82
2023/05/29 02:31:41;;;;;;;;;3.00;2.00;;;;;;;;5057149;28;45378;-82
2023/05/29 02:34:06;;;;;;;;;3.00;2.00;;;;;;;;5057392;28;45498;-82
2023/05/29 02:36:31;;;;;;;;;4.25;2.50;;;;;;;;5057154;28;45323;-81
2023/05/29 02:38:57;;;;;;;;;3.33;2.00;;;;;;;;5057076;28;45613;-82
2023/05/29 02:41:22;;;;;;;;;6.00;3.00;;;;;;;;5058213;28;45384;-83
2023/05/29 02:43:47;;;;;;;;;5.67;3.00;;;;;;;;5078830;28;45411;-81
2023/05/29 02:46:12;;;;;;;;;4.00;2.00;;;;;;;;5057982;28;45319;-82
2023/05/29 02:48:37;;;;;;;;;3.67;3.00;;;;;;;;5057611;28;45349;-82
2023/05/29 02:51:03;;;;;;;;;3.33;2.00;;;;;;;;5057383;28;45316;-82
2023/05/29 02:53:28;;;;;;;;;6.75;3.00;;;;;;;;5056524;28;45503;-81
2023/05/29 02:55:54;;;;;;;;;4.00;3.00;;;;;;;;5057222;28;45657;-82
2023/05/29 02:58:20;;;;;;;;;3.00;1.75;;;;;;;;5057305;28;45393;-82
2023/05/29 03:00:46;;;;;;;;;3.00;2.00;;;;;;;;5057162;28;45541;-82
2023/05/29 03:03:11;;;;;;;;;3.00;2.00;;;;;;;;5056763;28;45503;-82
2023/05/29 03:05:36;;;;;;;;;3.00;2.33;;;;;;;;5057241;28;45378;-82
2023/05/29 03:08:01;;;;;;;;;5.00;2.25;;;;;;;;5056742;28;45336;-82
2023/05/29 03:10:27;;;;;;;;;2.00;2.00;;;;;;;;5056951;28;45405;-82
2023/05/29 03:12:52;;;;;;;;;3.00;2.00;;;;;;;;5056588;28;45534;-81
2023/05/29 03:15:19;;;;;;;;;2.67;2.67;;;;;;;;5056778;28;45450;-82
2023/05/29 03:17:45;;;;;;;;;4.75;4.25;;;;;;;;5056624;28;45263;-81
2023/05/29 03:20:10;;;;;;;;;2.00;2.00;;;;;;;;5056841;28;45412;-82
2023/05/29 03:22:35;;;;;;;;;4.75;4.00;;;;;;;;5056226;28;45925;-82
2023/05/29 03:25:01;;;;;;;;;4.00;4.00;;;;;;;;5056598;28;45337;-82
2023/05/29 03:27:27;;;;;;;;;6.75;2.50;;;;;;;;5056821;28;45351;-82
2023/05/29 03:29:52;;;;;;;;;4.75;3.75;;;;;;;;5056515;28;45407;-82
2023/05/29 03:32:17;;;;;;;;;3.00;2.75;;;;;;;;5056324;28;46298;-81
2023/05/29 03:34:43;;;;;;;;;5.67;4.00;;;;;;;;5056297;28;45269;-82
2023/05/29 03:37:08;;;;;;;;;3.00;1.00;;;;;;;;5056111;28;45320;-82
2023/05/29 03:39:33;;;;;;;;;4.00;3.00;;;;;;;;5056390;28;45300;-82
2023/05/29 03:41:58;;;;;;;;;3.33;2.00;;;;;;;;5056207;28;45593;-82
2023/05/29 03:44:24;;;;;;;;;5.00;2.75;;;;;;;;5055303;28;45372;-82
2023/05/29 03:46:51;;;;;;;;;3.00;3.00;;;;;;;;5056163;28;45436;-82
2023/05/29 03:49:16;;;;;;;;;6.75;3.25;;;;;;;;5056167;28;45349;-82
2023/05/29 03:51:41;;;;;;;;;4.00;4.00;;;;;;;;5055735;28;45383;-81
2023/05/29 03:54:07;;;;;;;;;6.00;4.00;;;;;;;;5056061;28;45467;-82
2023/05/29 03:56:32;;;;;;;;;4.00;3.00;;;;;;;;5056212;28;45223;-82
2023/05/29 03:58:57;;;;;;;;;5.33;3.33;;;;;;;;5056119;28;45252;-82
2023/05/29 04:01:22;;;;;;;;;2.33;2.33;;;;;;;;5055738;28;46279;-82
2023/05/29 04:03:47;;;;;;;;;4.33;2.33;;;;;;;;5055946;28;45514;-82
2023/05/29 04:06:13;;;;;;;;;3.00;3.00;;;;;;;;5055903;28;45353;-82
2023/05/29 04:08:38;;;;;;;;;4.00;4.00;;;;;;;;5037955;28;45448;-82
2023/05/29 04:11:03;;;;;;;;;5.00;3.00;;;;;;;;5055704;28;45308;-82
2023/05/29 04:13:28;;;;;;;;;3.00;3.00;;;;;;;;5055581;28;45273;-82
2023/05/29 04:15:54;;;;;;;;;2.75;2.75;;;;;;;;5055871;28;45300;-82
2023/05/29 04:18:19;;;;;;;;;3.50;1.75;;;;;;;;5056047;28;45475;-81
2023/05/29 04:20:46;;;;;;;;;6.75;3.00;;;;;;;;5055401;28;46231;-82
2023/05/29 04:23:12;;;;;;;;;4.00;3.00;;;;;;;;5055693;28;45365;-82
2023/05/29 04:25:37;;;;;;;;;4.50;3.50;;;;;;;;5055881;28;45444;-82
2023/05/29 04:28:03;;;;;;;;;6.00;3.67;;;;;;;;5055676;28;45390;-82
2023/05/29 04:30:28;;;;;;;;;4.75;4.75;;;;;;;;5055248;28;46204;-82
2023/05/29 04:32:53;;;;;;;;;4.50;4.50;;;;;;;;5071034;28;45586;-81
2023/05/29 04:35:19;;;;;;;;;4.00;2.00;;;;;;;;5057939;28;45293;-82
2023/05/29 04:37:45;;;;;;;;;6.00;3.67;;;;;;;;5056021;28;45375;-82
2023/05/29 04:40:11;;;;;;;;;5.50;3.00;;;;;;;;5055525;28;45683;-82
2023/05/29 04:42:37;;;;;;;;;4.50;3.00;;;;;;;;5037696;28;45818;-82
2023/05/29 04:45:06;;;;;;;;;7.50;5.00;;;;;;;;5055871;28;45340;-82
2023/05/29 04:47:34;;;;;;;;;4.75;4.75;;;;;;;;5055790;28;45261;-82
2023/05/29 04:50:00;;;;;;;;;4.00;3.25;;;;;;;;5055083;28;46562;-82
2023/05/29 04:52:25;;;;;;;;;4.25;3.50;;;;;;;;5037360;28;45757;-82
2023/05/29 04:54:50;;;;;;;;;5.25;4.00;;;;;;;;5057602;28;45412;-82
2023/05/29 04:57:16;;;;;;;;;4.75;4.75;;;;;;;;5059047;28;45345;-82
2023/05/29 04:59:41;;;;;;;;;9.00;5.00;;;;;;;;5058908;28;45348;-82
2023/05/29 05:02:06;;;;;;;;;4.00;3.00;;;;;;;;5040708;28;45503;-82
2023/05/29 05:04:32;;;;;;;;;3.67;2.00;;;;;;;;5058496;28;45316;-82
2023/05/29 05:06:57;;;;;;;;;5.75;3.25;;;;;;;;5058778;28;45353;-82
2023/05/29 05:09:22;;;;;;;;;8.33;4.67;;;;;;;;5058693;28;46230;-82
2023/05/29 05:11:47;;;;;;;;;5.50;3.00;;;;;;;;5058598;28;45396;-82
2023/05/29 05:14:12;;;;;;;;;5.00;4.00;;;;;;;;5058581;28;45486;-82
2023/05/29 05:16:38;;;;;;;;;11.67;5.33;;;;;;;;5058670;28;45278;-81
2023/05/29 05:19:03;;;;;;;;;5.00;3.33;;;;;;;;5058271;28;46476;-82
2023/05/29 05:21:31;;;;;;;;;6.00;4.00;;;;;;;;5058670;28;45254;-82
2023/05/29 05:23:56;;;;;;;;;4.00;4.00;;;;;;;;5058587;28;45373;-82
2023/05/29 05:26:22;;;;;;;;;6.00;3.50;;;;;;;;5058637;28;45250;-82
2023/05/29 05:28:47;;;;;;;;;5.33;4.33;;;;;;;;5058248;28;47526;-82
2023/05/29 05:31:12;;;;;;;;;8.50;5.00;;;;;;;;5058450;28;45362;-82
2023/05/29 05:33:37;;;;;;;;;8.67;5.67;;;;;;;;5058083;28;45313;-82
2023/05/29 05:36:03;;;;;;;;;8.00;6.67;;;;;;;;5058408;28;45519;-82
2023/05/29 05:38:28;;;;;;;;;9.67;5.33;;;;;;;;5058296;28;45399;-82
2023/05/29 05:40:53;;;;;;;;;4.00;4.00;;;;;;;;5058240;28;45317;-81
2023/05/29 05:43:18;;;;;;;;;6.00;4.67;;;;;;;;5058355;28;45720;-82
2023/05/29 05:45:44;;;;;;;;;7.00;3.33;;;;;;;;5057938;28;45523;-81
2023/05/29 05:48:09;;;;;;;;;11.33;5.33;;;;;;;;5057846;28;45612;-82
2023/05/29 05:50:34;;;;;;;;;8.25;7.00;;;;;;;;5057849;28;45436;-82
2023/05/29 05:53:00;;;;;;;;;8.00;4.50;;;;;;;;5058124;28;45329;-82
2023/05/29 05:55:27;;;;;;;;;12.33;6.00;;;;;;;;5058118;28;45356;-82
2023/05/29 05:57:52;;;;;;;;;8.00;4.75;;;;;;;;5057722;28;46491;-82
2023/05/29 06:00:18;;;;;;;;;5.00;4.00;;;;;;;;5057834;28;45353;-82
2023/05/29 06:02:44;;;;;;;;;10.75;5.00;;;;;;;;5057651;28;45473;-82
2023/05/29 06:05:11;;;;;;;;;7.00;6.00;;;;;;;;5057806;28;45163;-82
2023/05/29 06:07:36;;;;;;;;;5.25;4.50;;;;;;;;5056962;28;46131;-82
2023/05/29 06:10:02;;;;;;;;;4.00;4.00;;;;;;;;5057620;28;45302;-82
2023/05/29 06:12:27;;;;;;;;;6.00;6.00;;;;;;;;5057447;28;45303;-82
2023/05/29 06:14:52;;;;;;;;;6.75;4.50;;;;;;;;5057348;28;45428;-82
2023/05/29 06:17:18;;;;;;;;;7.33;6.00;;;;;;;;5059663;28;46484;-82
2023/05/29 06:19:43;;;;;;;;;4.00;3.33;;;;;;;;5075172;28;45428;-82
2023/05/29 06:22:08;;;;;;;;;6.25;5.25;;;;;;;;5058422;28;45305;-82
2023/05/29 06:24:34;;;;;;;;;8.25;5.25;;;;;;;;5057993;28;45371;-82
2023/05/29 06:26:59;;;;;;;;;6.00;5.00;;;;;;;;5057594;28;45514;-82
2023/05/29 06:29:24;;;;;;;;;3.33;3.00;;;;;;;;5057176;28;45423;-81
2023/05/29 06:31:49;;;;;;;;;3.33;3.33;;;;;;;;5057542;28;45370;-82
2023/05/29 06:34:14;;;;;;;;;8.00;5.67;;;;;;;;5039703;28;45393;-82
2023/05/29 06:36:41;;;;;;;;;5.00;4.00;;;;;;;;5057504;28;45453;-82
2023/05/29 06:39:06;;;;;;;;;11.50;6.50;;;;;;;;5057331;28;45743;-82
2023/05/29 06:41:31;;;;;;;;;4.00;3.33;;;;;;;;5057432;28;45365;-82
2023/05/29 06:43:57;;;;;;;;;5.67;4.00;;;;;;;;5057017;28;45368;-82
2023/05/29 06:46:22;;;;;;;;;3.00;2.00;;;;;;;;5057217;28;46177;-82
2023/05/29 06:48:47;;;;;;;;;5.00;4.00;;;;;;;;5057260;28;45383;-82
2023/05/29 06:51:12;;;;;;;;;5.67;4.33;;;;;;;;5057202;28;45367;-82
2023/05/29 06:53:38;;;;;;;;;9.50;6.00;;;;;;;;5057056;28;45882;-82
2023/05/29 06:56:04;;;;;;;;;8.25;6.00;;;;;;;;5056974;28;45388;-82
2023/05/29 06:58:30;;;;;;;;;10.00;6.00;;;;;;;;5056656;28;45293;-82
2023/05/29 07:00:55;;;;;;;;;13.75;4.25;;;;;;;;5056983;28;45320;-82
2023/05/29 07:03:20;;;;;;;;;8.00;4.00;;;;;;;;5057039;28;45423;-82
2023/05/29 07:05:46;;;;;;;;;9.33;6.00;;;;;;;;5057010;28;45514;-82
2023/05/29 07:08:11;;;;;;;;;7.00;5.67;;;;;;;;5038998;28;45391;-82
2023/05/29 07:10:36;;;;;;;;;6.00;5.00;;;;;;;;5057225;28;45353;-81
2023/05/29 07:13:01;;;;;;;;;10.33;7.00;;;;;;;;5030868;28;45375;-82
2023/05/29 07:15:26;;;;;;;;;7.67;6.00;;;;;;;;5036766;28;45491;-82
2023/05/29 07:17:51;;;;;;;;;7.00;6.00;;;;;;;;5035320;28;45333;-82
2023/05/29 07:20:18;;;;;;;;;9.00;4.00;;;;;;;;5036718;28;45354;-82
2023/05/29 07:22:44;;;;;;;;;8.00;5.75;;;;;;;;5036483;28;45424;-82
2023/05/29 07:25:09;;;;;;;;;10.75;6.00;;;;;;;;5036371;28;46506;-82
2023/05/29 07:27:35;;;;;;;;;8.33;4.67;;;;;;;;5018332;28;45884;-82
2023/05/29 07:30:00;;;;;;;;;12.50;5.75;;;;;;;;5036326;28;45322;-82
2023/05/29 07:32:26;;;;;;;;;6.00;6.00;;;;;;;;5036388;28;45559;-82
2023/05/29 07:34:51;;;;;;;;;5.00;5.00;;;;;;;;5036174;28;45441;-83
2023/05/29 07:37:18;;;;;;;;;7.33;5.00;;;;;;;;5036314;28;45366;-82
2023/05/29 07:39:44;;;;;;;;;11.00;7.00;;;;;;;;5036256;28;45384;-82
2023/05/29 07:42:09;;;;;;;;;5.75;5.00;;;;;;;;5035969;28;45413;-82
2023/05/29 07:44:35;;;;;;;;;8.75;8.00;;;;;;;;5036239;28;47206;-81
2023/05/29 07:47:00;;;;;;;;;7.33;6.00;;;;;;;;5036101;28;45357;-83
2023/05/29 07:49:25;;;;;;;;;7.00;4.33;;;;;;;;5018125;28;45368;-82
2023/05/29 07:51:50;;;;;;;;;7.33;6.00;;;;;;;;5036100;28;45350;-81
2023/05/29 07:54:18;;;;;;;;;5.67;5.00;;;;;;;;5036081;28;46540;-82
2023/05/29 07:56:43;;;;;;;;;7.25;5.25;;;;;;;;5035550;28;45393;-82
2023/05/29 07:59:08;;;;;;;;;7.33;5.67;;;;;;;;5036181;28;45238;-82
2023/05/29 08:01:34;;;;;;;;;12.25;6.00;;;;;;;;5035961;28;45626;-82
2023/05/29 08:03:59;;;;;;;;;12.75;5.50;;;;;;;;5040299;28;46395;-81
2023/05/29 08:06:24;;;;;;;;;8.00;6.75;;;;;;;;5044159;28;45344;-82
2023/05/29 08:08:51;;;;;;;;;6.00;5.00;;;;;;;;5036199;28;45351;-82
2023/05/29 08:11:17;;;;;;;;;5.00;5.00;;;;;;;;5035944;28;45429;-82
2023/05/29 08:13:42;;;;;;;;;7.00;5.75;;;;;;;;5049052;28;46816;-82
2023/05/29 08:16:07;;;;;;;;;11.00;6.00;;;;;;;;5055969;28;45226;-82
2023/05/29 08:18:32;;;;;;;;;15.00;7.00;;;;;;;;5056102;28;45218;-82
2023/05/29 08:20:58;;;;;;;;;9.00;5.33;;;;;;;;5056087;28;45199;-82
2023/05/29 08:23:23;;;;;;;;;8.25;6.50;;;;;;;;5055695;28;46022;-82
2023/05/29 08:25:48;;;;;;;;;10.67;7.00;;;;;;;;5055782;28;45261;-82
2023/05/29 08:28:16;;;;;;;;;6.50;5.75;;;;;;;;5055931;28;45361;-82
2023/05/29 08:30:41;;;;;;;;;12.00;6.25;;;;;;;;5059017;28;45367;-82
2023/05/29 08:33:07;;;;;;;;;6.00;6.00;;;;;;;;5059187;28;45439;-81
2023/05/29 08:35:32;;;;;;;;;7.00;6.00;;;;;;;;5059553;28;45277;-82
2023/05/29 08:37:58;;;;;;;;;10.75;7.00;;;;;;;;5060339;28;45333;-82
2023/05/29 08:40:23;;;;;;;;;7.00;5.25;;;;;;;;5058828;28;45364;-82
2023/05/29 08:43:08;;;;;;;;;8.33;7.00;;;;;;;;5059170;28;45388;-82
2023/05/29 08:45:35;;;;;;;;;10.00;8.00;;;;;;;;5044237;28;45356;-82
2023/05/29 08:48:00;;;;;;;;;11.50;6.00;;;;;;;;5059250;28;45344;-82
2023/05/29 08:50:25;;;;;;;;;7.33;6.33;;;;;;;;5058994;28;45589;-81
2023/05/29 08:52:51;;;;;;;;;5.75;5.00;;;;;;;;5058815;28;46323;-82
2023/05/29 08:55:16;;;;;;;;;10.67;6.67;;;;;;;;5058519;28;45425;-82
2023/05/29 08:57:43;;;;;;;;;9.75;5.75;;;;;;;;5059095;28;45414;-82
2023/05/29 09:00:12;;;;;;;;;8.00;6.50;;;;;;;;5058932;28;45428;-82
2023/05/29 09:02:37;;;;;;;;;8.25;7.25;;;;;;;;5058702;28;45412;-82
2023/05/29 09:05:03;;;;;;;;;10.00;5.50;;;;;;;;5058673;28;45258;-83
2023/05/29 09:07:29;;;;;;;;;7.25;6.00;;;;;;;;5058854;28;45409;-82
2023/05/29 09:09:54;;;;;;;;;8.00;5.33;;;;;;;;5058475;28;45210;-81
2023/05/29 09:12:19;;;;;;;;;14.00;9.00;;;;;;;;5058529;28;45336;-82
2023/05/29 09:14:45;;;;;;;;;14.50;7.25;;;;;;;;5058669;28;45336;-82
2023/05/29 09:17:11;;;;;;;;;10.50;6.50;;;;;;;;5058618;28;45309;-82
2023/05/29 09:19:37;;;;;;;;;13.00;7.50;;;;;;;;5058794;28;45363;-82
2023/05/29 09:22:07;;;;;;;;;9.75;7.00;;;;;;;;5058571;28;46169;-82
2023/05/29 09:24:33;;;;;;;;;9.75;6.75;;;;;;;;5058018;28;45440;-82
2023/05/29 09:26:59;;;;;;;;;10.50;6.75;;;;;;;;5058584;28;45376;-82
2023/05/29 09:29:24;;;;;;;;;6.25;6.25;;;;;;;;5058303;28;45413;-82
2023/05/29 09:31:50;;;;;;;;;9.75;6.00;;;;;;;;5058285;28;47189;-82
2023/05/29 09:34:16;;;;;;;;;7.50;6.75;;;;;;;;5058358;28;45402;-82
2023/05/29 09:36:41;;;;;;;;;13.00;7.25;;;;;;;;5058330;28;45411;-82
2023/05/29 09:39:09;;;;;;;;;14.75;8.00;;;;;;;;5057895;28;45566;-82
2023/05/29 09:41:45;;;;;;;;;10.50;7.50;;;;;;;;5056893;28;45390;-82
2023/05/29 09:44:13;;;;;;;;;9.50;8.00;;;;;;;;5058196;28;45269;-82
2023/05/29 09:46:39;;;;;;;;;7.50;6.00;;;;;;;;5058064;28;45825;-81
2023/05/29 09:49:14;;;;;;;;;7.50;6.75;;;;;;;;5063455;28;45476;-82
2023/05/29 09:51:39;;;;;;;;;8.50;8.50;;;;;;;;5061594;28;46620;-82
2023/05/29 09:54:14;;;;;;;;;10.50;8.00;;;;;;;;5058027;28;45366;-81
2023/05/29 09:56:41;;;;;;;;;12.50;8.25;;;;;;;;5058711;28;45410;-82
2023/05/29 09:59:07;;;;;;;;;10.00;8.00;;;;;;;;5058239;28;45511;-82
2023/05/29 10:01:34;;;;;;;;;13.50;9.75;;;;;;;;5058227;28;45446;-82
2023/05/29 10:04:00;;;;;;;;;12.75;7.00;;;;;;;;5057926;28;45179;-81
2023/05/29 10:06:25;;;;;;;;;14.00;6.50;;;;;;;;5058050;28;45357;-82
2023/05/29 10:08:53;;;;;;;;;9.00;7.50;;;;;;;;5057689;28;45233;-82
2023/05/29 10:11:21;;;;;;;;;9.00;6.50;;;;;;;;5057630;28;45620;-82
2023/05/29 10:13:49;;;;;;;;;11.00;7.75;;;;;;;;5057587;28;45701;-82
2023/05/29 10:16:15;;;;;;;;;10.25;6.50;;;;;;;;5057861;28;45272;-82
2023/05/29 10:18:49;;;;;;;;;11.25;8.25;;;;;;;;5057771;28;45240;-82
2023/05/29 10:21:14;;;;;;;;;8.25;6.75;;;;;;;;5057598;28;46470;-82
2023/05/29 10:23:43;;;;;;;;;9.75;8.00;;;;;;;;5057285;28;45372;-82
2023/05/29 10:26:27;;;;;;;;;12.75;6.25;;;;;;;;5057809;28;45361;-82
2023/05/29 10:28:59;;;;;;;;;7.25;5.25;;;;;;;;5057589;28;45576;-82
2023/05/29 10:31:28;;;;;;;;;7.00;5.50;;;;;;;;5057235;28;45376;-82
2023/05/29 10:33:54;;;;;;;;;8.50;7.00;;;;;;;;5057334;28;45852;-82
2023/05/29 10:36:21;;;;;;;;;8.00;7.00;;;;;;;;5057312;28;45474;-82
2023/05/29 10:38:47;;;;;;;;;8.75;7.00;;;;;;;;5057581;28;45498;-83
2023/05/29 10:41:27;;;;;;;;;8.75;6.25;;;;;;;;5057210;28;46550;-82
2023/05/29 10:44:02;;;;;;;;;7.25;7.00;;;;;;;;5057094;28;45298;-82
2023/05/29 10:46:44;;;;;;;;;6.00;4.00;;;;;;;;5057063;28;45440;-82
2023/05/29 10:49:22;;;;;;;;;11.50;8.00;;;;;;;;5057169;28;45496;-82
2023/05/29 10:51:48;;;;;;;;;7.50;6.00;;;;;;;;5056335;28;46330;-82
2023/05/29 10:54:16;;;;;;;;;7.50;6.00;;;;;;;;5056802;28;45751;-82
2023/05/29 10:56:45;;;;;;;;;6.50;5.25;;;;;;;;5057139;28;45393;-82
2023/05/29 10:59:10;;;;;;;;;7.00;5.00;;;;;;;;5056914;28;45419;-82
2023/05/29 11:01:38;;;;;;;;;7.00;4.50;;;;;;;;5056722;28;46747;-82
2023/05/29 11:04:15;;;;;;;;;8.00;5.00;;;;;;;;5056879;28;45464;-82
2023/05/29 11:06:41;;;;;;;;;10.50;4.00;;;;;;;;5056536;28;45479;-82
2023/05/29 11:09:25;;;;;;;;;5.25;4.50;;;;;;;;5038746;28;45412;-82
2023/05/29 11:12:10;;;;;;;;;7.50;5.25;;;;;;;;5038739;28;48382;-82
2023/05/29 11:14:46;;;;;;;;;3.00;0.00;;;;;;;;5056636;28;45747;-82
2023/05/29 11:17:30;;;;;;;;;6.75;4.75;;;;;;;;5056744;28;45209;-82
2023/05/29 11:19:56;;;;;;;;;6.25;5.25;;;;;;;;5056212;28;45451;-82
2023/05/29 11:22:23;;;;;;;;;8.75;6.00;;;;;;;;5056617;28;46553;-82
2023/05/29 11:24:48;;;;;;;;;6.00;3.75;;;;;;;;5056589;28;45180;-82
2023/05/29 11:27:14;;;;;;;;;4.50;4.00;;;;;;;;5056665;28;45344;-82
2023/05/29 11:29:39;;;;;;;;;6.50;5.00;;;;;;;;5056531;28;45419;-83
2023/05/29 11:32:07;;;;;;;;;5.00;4.00;;;;;;;;5056350;28;45674;-83
2023/05/29 11:34:33;;;;;;;;;8.00;5.25;;;;;;;;5055963;28;45309;-82
2023/05/29 11:36:58;;;;;;;;;7.00;5.25;;;;;;;;5059892;28;45356;-83
2023/05/29 11:39:23;;;;;;;;;7.50;5.00;;;;;;;;5069259;28;44830;-82
2023/05/29 11:41:54;;;;;;;;;8.50;4.00;;;;;;;;5056838;28;45983;-82
2023/05/29 11:44:20;;;;;;;;;10.50;6.50;;;;;;;;5056850;28;45400;-82
2023/05/29 11:46:45;;;;;;;;;7.00;4.00;;;;;;;;5056596;28;45309;-82
2023/05/29 11:49:11;;;;;;;;;6.25;3.25;;;;;;;;5056280;28;45781;-83
2023/05/29 11:51:36;;;;;;;;;4.67;3.00;;;;;;;;5056704;28;45561;-82
2023/05/29 11:54:02;;;;;;;;;7.25;3.00;;;;;;;;5056222;28;45408;-82
2023/05/29 11:56:28;;;;;;;;;5.75;4.75;;;;;;;;5038385;28;45495;-82
2023/05/29 11:58:56;;;;;;;;;4.50;3.25;;;;;;;;5056502;28;45409;-83
2023/05/29 12:01:23;;;;;;;;;3.00;2.00;;;;;;;;5056086;28;46646;-82
2023/05/29 12:03:48;;;;;;;;;3.00;2.00;;;;;;;;5054958;28;45227;-83
2023/05/29 12:06:14;;;;;;;;;2.75;2.00;;;;;;;;5056227;28;45286;-83
2023/05/29 12:08:39;;;;;;;;;5.75;3.50;;;;;;;;5056139;28;45287;-83
2023/05/29 12:11:05;;;;;;;;;5.67;2.00;;;;;;;;5055935;28;45283;-82
2023/05/29 12:13:30;;;;;;;;;1.50;1.50;;;;;;;;5056034;28;45297;-83
2023/05/29 12:16:01;;;;;;;;;1.00;1.00;;;;;;;;5056252;28;45217;-83
2023/05/29 12:18:26;;;;;;;;;1.00;1.00;;;;;;;;5055706;28;45408;-83
2023/05/29 12:20:56;;;;;;;;;2.25;0.75;;;;;;;;5055855;28;46628;-83
2023/05/29 12:23:22;;;;;;;;;2.25;1.75;;;;;;;;5037931;28;45327;-83
2023/05/29 12:25:47;;;;;;;;;4.00;0.25;;;;;;;;5055915;28;45375;-83
2023/05/29 12:28:17;;;;;;;;;0.00;0.00;;;;;;;;5056032;28;45460;-83
2023/05/29 12:30:43;;;;;;;;;3.00;2.00;;;;;;;;5055644;28;46618;-83
2023/05/29 12:33:08;;;;;;;;;2.00;1.00;;;;;;;;5055401;28;45851;-83
2023/05/29 12:35:34;;;;;;;;;1.75;0.75;;;;;;;;5055921;28;45387;-83
2023/05/29 12:38:00;;;;;;;;;1.00;0.75;;;;;;;;5055814;28;45346;-83
2023/05/29 12:40:26;;;;;;;;;2.75;1.00;;;;;;;;5055801;28;46343;-83
2023/05/29 12:42:56;;;;;;;;;2.00;1.00;;;;;;;;5055625;28;45379;-83
2023/05/29 12:45:22;;;;;;;;;0.00;0.00;;;;;;;;5055531;28;45442;-83
2023/05/29 12:47:52;;;;;;;;;2.25;1.00;;;;;;;;5037262;28;45468;-83
2023/05/29 12:50:23;;;;;;;;;2.00;1.25;;;;;;;;5055477;28;46338;-83
2023/05/29 12:52:55;;;;;;;;;1.50;1.00;;;;;;;;5055367;28;45368;-83
2023/05/29 12:55:20;;;;;;;;;0.25;0.00;;;;;;;;5055521;28;45442;-83
2023/05/29 12:57:46;;;;;;;;;4.00;2.00;;;;;;;;5055661;28;45384;-84
2023/05/29 13:00:12;;;;;;;;;0.50;0.50;;;;;;;;5055274;28;45648;-84
2023/05/29 13:02:37;;;;;;;;;1.75;1.25;;;;;;;;5055094;28;45384;-83
2023/05/29 13:05:02;;;;;;;;;2.67;1.00;;;;;;;;5055465;28;45302;-83
2023/05/29 13:07:27;;;;;;;;;2.67;1.00;;;;;;;;5055440;28;45341;-83
2023/05/29 13:09:53;;;;;;;;;1.00;0.25;;;;;;;;5054827;28;46248;-83
2023/05/29 13:12:18;;;;;;;;;1.00;0.00;;;;;;;;5055214;28;45432;-83
2023/05/29 13:14:43;;;;;;;;;3.00;1.00;;;;;;;;5055433;28;45331;-84
2023/05/29 13:17:08;;;;;;;;;3.00;1.00;;;;;;;;5058543;28;45447;-83
2023/05/29 13:19:33;;;;;;;;;0.00;0.00;;;;;;;;5058535;28;46496;-83
2023/05/29 13:21:58;;;;;;;;;1.00;1.00;;;;;;;;5058757;28;45383;-83
2023/05/29 13:24:24;;;;;;;;;2.33;1.00;;;;;;;;5058772;28;45435;-83
2023/05/29 13:26:50;;;;;;;;;0.00;0.00;;;;;;;;5058695;28;45476;-83
2023/05/29 13:29:15;;;;;;;;;0.75;0.25;;;;;;;;5058422;28;46263;-83
2023/05/29 13:31:41;;;;;;;;;0.33;0.33;;;;;;;;5061898;28;45286;-83
2023/05/29 13:34:06;;;;;;;;;1.00;1.00;;;;;;;;5074627;28;44758;-85
2023/05/29 13:36:31;;;;;;;;;2.00;0.00;;;;;;;;5059222;28;45586;-83
2023/05/29 13:38:56;;;;;;;;;2.67;1.00;;;;;;;;5058438;28;45399;-84
2023/05/29 13:41:21;;;;;;;;;1.00;1.00;;;;;;;;5058621;28;45340;-83
2023/05/29 13:43:46;;;;;;;;;2.00;0.00;;;;;;;;5058580;28;45369;-83
2023/05/29 13:46:12;;;;;;;;;0.00;0.00;;;;;;;;5058139;28;45258;-83
2023/05/29 13:48:37;;;;;;;;;2.00;0.00;;;;;;;;5058150;28;45487;-83
2023/05/29 13:51:02;;;;;;;;;1.00;1.00;;;;;;;;5058184;28;45440;-83
2023/05/29 13:53:27;;;;;;;;;1.00;0.33;;;;;;;;5058441;28;45881;-83
2023/05/29 13:55:53;;;;;;;;;3.00;0.67;;;;;;;;5040150;28;45324;-84
2023/05/29 13:58:18;;;;;;;;;0.00;0.00;;;;;;;;5057953;28;46469;-84
2023/05/29 14:00:43;;;;;;;;;3.67;1.00;;;;;;;;5057546;28;45381;-82
2023/05/29 14:03:09;;;;;;;;;1.33;0.00;;;;;;;;5058235;28;45463;-81
2023/05/29 14:05:34;;;;;;;;;0.50;0.00;;;;;;;;5058017;28;45459;-81
2023/05/29 14:08:00;;;;;;;;;1.25;0.00;;;;;;;;5057918;28;46217;-81
2023/05/29 14:10:25;;;;;;;;;0.00;0.00;;;;;;;;5057827;28;45460;-82
2023/05/29 14:12:51;;;;;;;;;1.50;0.00;;;;;;;;5057858;28;45415;-82
2023/05/29 14:15:16;;;;;;;;;0.00;0.00;;;;;;;;5057509;28;45444;-83
2023/05/29 14:17:41;;;;;;;;;0.00;0.00;;;;;;;;5057760;28;45262;-83
2023/05/29 14:20:08;;;;;;;;;0.67;0.67;;;;;;;;5057666;28;45419;-83
2023/05/29 14:22:34;;;;;;;;;0.00;0.00;;;;;;;;5058658;28;45326;-82
2023/05/29 14:25:00;;;;;;;;;0.50;0.50;;;;;;;;5039626;28;45256;-82
2023/05/29 14:27:25;;;;;;;;;0.75;0.75;;;;;;;;5056818;28;46636;-82
2023/05/29 14:29:51;;;;;;;;;3.33;0.00;;;;;;;;5057338;28;45371;-83
2023/05/29 14:32:16;;;;;;;;;3.00;0.00;;;;;;;;5057675;28;45293;-83
2023/05/29 14:34:41;;;;;;;;;3.67;0.67;;;;;;;;5057537;28;45357;-83